Weather at Walgett Airport

Public forecast

Using degrees Celsius for public forecast. Weather courtesy of forecast.io.

Closest aviation weather report (METAR) to Walgett Airport

Closest report is Coonamble Airport, 58.5 nm (108.4 km) SSE. Retrieved 2021/06/21 10:00 UTC (27 minutes ago):

YCNM 211000Z AUTO 15009KT //// // ////// 11/06 Q1025

Closest aviation forecast (TAF) to Walgett Airport

Forecast is more than 6 hours old.

Closest forecast is Tamworth Airport, 154.2 nm (285.5 km) ESE. Retrieved 2021-06-21 00:36 UTC (10 hours ago):

TAF TAF YSTW 202250Z 2100/2118 16007KT CAVOK FM210400 15009KT 9999 SCT035 FM210900 13005KT CAVOK